createdAt,value
2022-12-27T00:02:56.539Z,98182.41
2022-12-27T00:05:58.131Z,98187.72
2022-12-27T00:09:01.604Z,98193.19
2022-12-27T00:12:03.163Z,98196.31
2022-12-27T00:15:05.671Z,98202.91
2022-12-27T00:18:07.261Z,98202.09
2022-12-27T00:21:11.428Z,98214.19
2022-12-27T00:24:13.031Z,98210.03
2022-12-27T00:27:14.654Z,98210.41
2022-12-27T00:30:16.322Z,98206.25
2022-12-27T00:33:17.883Z,98209.69
2022-12-27T00:36:22.757Z,98206.84
2022-12-27T00:39:24.418Z,98204.91
2022-12-27T00:42:26.036Z,98215.34
2022-12-27T00:45:27.683Z,98206.41
2022-12-27T00:48:29.743Z,98210.25
2022-12-27T00:51:31.490Z,98211.00
2022-12-27T00:54:33.117Z,98206.38
2022-12-27T00:57:34.645Z,98201.00
2022-12-27T01:00:36.684Z,98207.94
2022-12-27T01:03:38.297Z,98206.41
2022-12-27T01:06:40.024Z,98211.91
2022-12-27T01:09:41.587Z,98213.59
2022-12-27T01:12:43.117Z,98226.00
2022-12-27T01:15:44.691Z,98219.44
2022-12-27T01:18:47.071Z,98217.31
2022-12-27T01:21:48.641Z,98226.63
2022-12-27T01:24:50.181Z,98233.88
2022-12-27T01:27:51.859Z,98227.94
2022-12-27T01:30:53.597Z,98230.41
2022-12-27T01:33:57.310Z,98224.22
2022-12-27T01:36:58.871Z,98226.97
2022-12-27T01:40:01.759Z,98231.13
2022-12-27T01:43:04.090Z,98232.66
2022-12-27T01:46:05.807Z,98241.22
2022-12-27T01:49:11.546Z,98239.56
2022-12-27T01:52:14.241Z,98235.34
2022-12-27T01:55:25.086Z,98253.78
2022-12-27T01:58:29.526Z,98263.66
2022-12-27T02:01:37.727Z,98264.72
2022-12-27T02:04:40.003Z,98263.56
2022-12-27T02:07:57.159Z,98268.66
2022-12-27T02:11:00.624Z,98267.09
2022-12-27T02:14:02.327Z,98274.22
2022-12-27T02:17:08.071Z,98270.72
2022-12-27T02:20:22.714Z,98279.84
2022-12-27T02:24:07.684Z,98288.31
2022-12-27T02:27:27.836Z,98304.19
2022-12-27T02:30:33.813Z,98302.41
2022-12-27T02:33:43.645Z,98297.50
2022-12-27T02:36:46.510Z,98309.63
2022-12-27T02:39:50.363Z,98310.25
2022-12-27T02:43:10.963Z,98313.38
2022-12-27T02:46:37.131Z,98315.00
2022-12-27T02:50:01.109Z,98305.75
2022-12-27T02:53:12.641Z,98301.44
2022-12-27T02:57:08.838Z,98297.59
2022-12-27T03:00:31.737Z,98297.81
2022-12-27T03:04:18.551Z,98292.34
2022-12-27T03:07:48.838Z,98286.63
2022-12-27T03:11:18.707Z,98292.41
2022-12-27T03:14:52.626Z,98296.84
2022-12-27T03:18:06.376Z,98302.53
2022-12-27T03:21:27.734Z,98308.81
2022-12-27T03:24:55.308Z,98308.59
2022-12-27T03:28:34.290Z,98315.78
2022-12-27T03:31:59.460Z,98311.13
2022-12-27T03:35:14.983Z,98306.22
2022-12-27T03:38:16.793Z,98307.69
2022-12-27T03:41:49.991Z,98309.03
2022-12-27T03:44:52.063Z,98318.59
2022-12-27T03:47:59.967Z,98317.16
2022-12-27T03:51:05.342Z,98317.00
2022-12-27T03:54:17.086Z,98320.88
2022-12-27T03:57:22.553Z,98332.38
2022-12-27T04:00:24.214Z,98328.38
2022-12-27T04:03:25.869Z,98336.50
2022-12-27T04:06:27.491Z,98331.75
2022-12-27T04:09:47.428Z,98325.19
2022-12-27T04:13:07.574Z,98325.94
2022-12-27T04:16:27.823Z,98309.97
2022-12-27T04:19:48.067Z,98307.47
2022-12-27T04:23:08.397Z,98312.28
2022-12-27T04:26:28.417Z,98320.78
2022-12-27T04:29:48.443Z,98334.91
2022-12-27T04:33:08.639Z,98327.16
2022-12-27T04:36:10.203Z,98324.13
2022-12-27T04:39:12.057Z,98326.38
2022-12-27T04:42:32.457Z,98322.78
2022-12-27T04:45:53.200Z,98323.63
2022-12-27T04:49:13.364Z,98332.84
2022-12-27T04:52:39.284Z,98333.50
2022-12-27T04:55:40.844Z,98327.25
2022-12-27T04:59:02.484Z,98339.16
2022-12-27T05:02:04.413Z,98327.53
2022-12-27T05:05:07.946Z,98335.19
2022-12-27T05:08:29.154Z,98326.63
2022-12-27T05:11:49.573Z,98330.16
2022-12-27T05:14:51.219Z,98332.06
2022-12-27T05:17:52.796Z,98346.72
2022-12-27T05:20:54.435Z,98349.63
2022-12-27T05:24:14.380Z,98343.38
2022-12-27T05:27:16.450Z,98349.63
2022-12-27T05:30:18.106Z,98337.19
2022-12-27T05:33:19.690Z,98342.31
2022-12-27T05:36:21.269Z,98331.97
2022-12-27T05:39:22.827Z,98340.44
2022-12-27T05:42:24.423Z,98342.22
2022-12-27T05:45:26.258Z,98344.09
2022-12-27T05:48:28.320Z,98337.09
2022-12-27T05:51:30.064Z,98341.47
2022-12-27T05:54:31.639Z,98339.16
2022-12-27T05:57:33.824Z,98354.41
2022-12-27T06:00:35.477Z,98356.53
2022-12-27T06:03:37.339Z,98346.06
2022-12-27T06:06:38.939Z,98358.81
2022-12-27T06:09:40.655Z,98360.16
2022-12-27T06:12:42.322Z,98360.69
2022-12-27T06:15:43.972Z,98352.75
2022-12-27T06:18:45.744Z,98361.09
2022-12-27T06:21:47.504Z,98356.72
2022-12-27T06:24:49.136Z,98354.19
2022-12-27T06:27:50.716Z,98370.69
2022-12-27T06:30:52.374Z,98365.25
2022-12-27T06:33:54.550Z,98376.13
2022-12-27T06:36:57.638Z,98380.06
2022-12-27T06:39:59.123Z,98382.47
2022-12-27T06:43:00.651Z,98383.41
2022-12-27T06:46:05.669Z,98380.56
2022-12-27T06:49:07.346Z,98383.34
2022-12-27T06:52:08.864Z,98380.44
2022-12-27T06:55:10.460Z,98380.34
2022-12-27T06:58:13.664Z,98379.78
2022-12-27T07:01:20.712Z,98384.41
2022-12-27T07:04:22.301Z,98384.19
2022-12-27T07:07:23.957Z,98379.78
2022-12-27T07:10:25.820Z,98379.88
2022-12-27T07:13:27.585Z,98385.28
2022-12-27T07:16:30.518Z,98398.03
2022-12-27T07:19:32.237Z,98391.34
2022-12-27T07:22:34.620Z,98407.00
2022-12-27T07:25:36.266Z,98409.97
2022-12-27T07:28:38.748Z,98408.72
2022-12-27T07:31:40.576Z,98412.88
2022-12-27T07:34:42.264Z,98418.13
2022-12-27T07:37:43.826Z,98419.91
2022-12-27T07:40:45.380Z,98412.50
2022-12-27T07:43:47.227Z,98429.66
2022-12-27T07:46:49.071Z,98436.03
2022-12-27T07:50:16.063Z,98436.91
2022-12-27T07:53:17.740Z,98444.97
2022-12-27T07:56:29.413Z,98441.13
2022-12-27T07:59:33.940Z,98439.56
2022-12-27T08:02:46.967Z,98438.31
2022-12-27T08:05:50.001Z,98428.88
2022-12-27T08:08:52.840Z,98428.25
2022-12-27T08:11:54.529Z,98435.69
2022-12-27T08:14:56.080Z,98432.03
2022-12-27T08:17:57.602Z,98436.31
2022-12-27T08:20:59.075Z,98423.16
2022-12-27T08:24:00.645Z,98409.66
2022-12-27T08:27:02.240Z,98420.56
2022-12-27T08:30:04.591Z,98434.56
2022-12-27T08:33:10.346Z,98432.78
2022-12-27T08:36:45.299Z,98431.22
2022-12-27T08:39:34.464Z,98427.78
2022-12-27T08:42:35.957Z,98435.72
2022-12-27T08:45:38.617Z,98428.06
2022-12-27T08:48:40.743Z,98432.47
2022-12-27T08:51:42.372Z,98435.38
2022-12-27T08:54:43.957Z,98426.91
2022-12-27T08:57:45.445Z,98445.84
2022-12-27T09:00:47.046Z,98443.97
2022-12-27T09:03:51.035Z,98438.50
2022-12-27T09:06:52.593Z,98441.72
2022-12-27T09:09:54.147Z,98431.78
2022-12-27T09:12:55.732Z,98438.69
2022-12-27T09:15:57.462Z,98428.72
2022-12-27T09:18:59.629Z,98439.03
2022-12-27T09:22:01.160Z,98436.38
2022-12-27T09:25:02.834Z,98430.56
2022-12-27T09:28:04.670Z,98432.31
2022-12-27T09:31:09.119Z,98435.94
2022-12-27T09:34:11.402Z,98431.69
2022-12-27T09:37:13.062Z,98439.38
2022-12-27T09:40:19.963Z,98438.94
2022-12-27T09:43:36.263Z,98437.84
2022-12-27T09:46:50.115Z,98435.63
2022-12-27T09:50:14.644Z,98436.69
2022-12-27T09:53:26.657Z,98432.66
2022-12-27T09:57:01.743Z,98431.47
2022-12-27T09:59:59.350Z,98424.44
2022-12-27T10:03:04.894Z,98424.19
2022-12-27T10:06:47.923Z,98423.38
2022-12-27T10:10:18.661Z,98417.91
2022-12-27T10:13:46.922Z,98407.03
2022-12-27T10:20:13.123Z,98412.31
2022-12-27T10:23:23.064Z,98402.53
2022-12-27T10:26:24.874Z,98401.09
2022-12-27T10:29:28.026Z,98401.31
2022-12-27T10:32:29.576Z,98409.56
2022-12-27T10:35:31.304Z,98400.97
2022-12-27T10:38:34.987Z,98391.38
2022-12-27T10:41:50.379Z,98394.72
2022-12-27T10:44:51.925Z,98398.31
2022-12-27T10:48:11.145Z,98395.97
2022-12-27T10:51:12.674Z,98398.94
2022-12-27T10:54:20.349Z,98396.25
2022-12-27T10:57:29.053Z,98392.75
2022-12-27T11:00:30.979Z,98402.50
2022-12-27T11:03:33.603Z,98400.22
2022-12-27T11:06:35.551Z,98403.59
2022-12-27T11:09:50.363Z,98400.81
2022-12-27T11:13:06.808Z,98404.06
2022-12-27T11:16:27.235Z,98400.34
2022-12-27T11:19:29.138Z,98394.94
2022-12-27T11:22:30.733Z,98395.78
2022-12-27T11:26:30.090Z,98404.19
2022-12-27T11:29:33.118Z,98398.50
2022-12-27T11:32:34.788Z,98393.66
2022-12-27T11:35:47.816Z,98382.03
2022-12-27T11:38:50.510Z,98394.56
2022-12-27T11:41:54.871Z,98391.19
2022-12-27T11:45:14.838Z,98389.00
2022-12-27T11:48:16.362Z,98375.44
2022-12-27T11:51:37.606Z,98372.94
2022-12-27T11:54:51.093Z,98369.09
2022-12-27T11:58:13.850Z,98370.34
2022-12-27T12:01:37.559Z,98359.34
2022-12-27T12:04:41.959Z,98363.13
2022-12-27T12:07:49.536Z,98360.34
2022-12-27T12:11:14.557Z,98357.56
2022-12-27T12:15:10.709Z,98355.03
2022-12-27T12:18:30.932Z,98354.31
2022-12-27T12:21:53.999Z,98359.19
2022-12-27T12:25:02.654Z,98364.19
2022-12-27T12:28:57.671Z,98359.59
2022-12-27T12:32:01.183Z,98357.44
2022-12-27T12:35:20.309Z,98354.84
2022-12-27T12:38:27.849Z,98347.81
2022-12-27T12:41:44.220Z,98355.06
2022-12-27T12:45:07.185Z,98349.38
2022-12-27T12:48:33.404Z,98347.84
2022-12-27T12:51:45.616Z,98343.13
2022-12-27T12:54:56.510Z,98343.69
2022-12-27T12:58:22.877Z,98348.13
2022-12-27T13:01:50.721Z,98334.09
2022-12-27T13:05:20.524Z,98353.13
2022-12-27T13:08:38.673Z,98336.31
2022-12-27T13:12:05.157Z,98347.88
2022-12-27T13:15:27.319Z,98341.59
2022-12-27T13:18:41.027Z,98340.06
2022-12-27T13:21:52.474Z,98341.44
2022-12-27T13:25:11.603Z,98346.84
2022-12-27T13:28:30.996Z,98339.88
2022-12-27T13:32:08.922Z,98342.66
2022-12-27T13:35:40.357Z,98330.31
2022-12-27T13:39:27.915Z,98333.38
2022-12-27T13:43:06.551Z,98340.44
2022-12-27T13:46:34.107Z,98337.84
2022-12-27T13:50:03.075Z,98337.28
2022-12-27T13:53:05.983Z,98334.66
2022-12-27T13:56:54.373Z,98328.81
2022-12-27T14:00:15.224Z,98335.31
2022-12-27T14:03:50.126Z,98331.84
2022-12-27T14:07:03.784Z,98328.09
2022-12-27T14:10:32.378Z,98330.03
2022-12-27T14:13:40.966Z,98334.03
2022-12-27T14:17:01.805Z,98338.06
2022-12-27T14:20:34.134Z,98336.94
2022-12-27T14:23:56.664Z,98342.31
2022-12-27T14:27:37.822Z,98332.03
2022-12-27T14:31:14.688Z,98332.03
2022-12-27T14:34:34.095Z,98326.22
2022-12-27T14:38:11.785Z,98326.50
2022-12-27T14:41:44.574Z,98313.97
2022-12-27T14:45:20.380Z,98326.84
2022-12-27T14:48:57.253Z,98310.13
2022-12-27T14:52:12.169Z,98326.50
2022-12-27T14:55:36.575Z,98326.44
2022-12-27T14:59:02.709Z,98315.47
2022-12-27T15:02:41.072Z,98323.34
2022-12-27T15:06:08.172Z,98319.78
2022-12-27T15:09:31.206Z,98310.69
2022-12-27T15:12:57.363Z,98308.56
2022-12-27T15:16:14.808Z,98318.72
2022-12-27T15:19:54.409Z,98312.13
2022-12-27T15:23:05.220Z,98314.47
2022-12-27T15:26:28.013Z,98311.19
2022-12-27T15:29:50.910Z,98314.94
2022-12-27T15:33:09.980Z,98301.97
2022-12-27T15:36:18.049Z,98308.66
2022-12-27T15:39:34.931Z,98300.81
2022-12-27T15:42:44.827Z,98293.56
2022-12-27T15:46:08.395Z,98285.84
2022-12-27T15:49:39.548Z,98279.41
2022-12-27T15:53:16.677Z,98262.09
2022-12-27T15:56:42.936Z,98260.00
2022-12-27T15:59:52.868Z,98267.97
2022-12-27T16:02:57.073Z,98273.13
2022-12-27T16:05:58.786Z,98263.56
2022-12-27T16:09:18.962Z,98272.38
2022-12-27T16:12:38.177Z,98262.97
2022-12-27T16:15:51.090Z,98274.16
2022-12-27T16:19:23.619Z,98278.28
2022-12-27T16:22:37.661Z,98276.69
2022-12-27T16:25:43.457Z,98280.00
2022-12-27T16:29:07.934Z,98282.28
2022-12-27T16:32:21.962Z,98283.16
2022-12-27T16:35:23.629Z,98289.09
2022-12-27T16:38:25.338Z,98287.88
2022-12-27T16:41:36.750Z,98285.31
2022-12-27T16:45:03.042Z,98287.09
2022-12-27T16:48:27.120Z,98287.75
2022-12-27T16:51:54.579Z,98297.00
2022-12-27T16:59:55.163Z,98293.91
2022-12-27T17:03:52.989Z,98299.91
2022-12-27T17:06:56.654Z,98303.47
2022-12-27T17:10:34.993Z,98297.09
2022-12-27T17:14:06.322Z,98293.44
2022-12-27T17:17:17.824Z,98291.69
2022-12-27T17:20:21.234Z,98289.59
2022-12-27T17:23:23.416Z,98292.84
2022-12-27T17:26:43.396Z,98287.09
2022-12-27T17:30:10.896Z,98285.44
2022-12-27T17:33:30.852Z,98281.56
2022-12-27T17:36:47.233Z,98288.16
2022-12-27T17:40:07.423Z,98284.59
2022-12-27T17:44:05.362Z,98280.31
2022-12-27T17:47:40.658Z,98270.06
2022-12-27T17:50:44.485Z,98277.69
2022-12-27T17:54:09.226Z,98265.78
2022-12-27T17:57:31.155Z,98276.44
2022-12-27T18:00:39.941Z,98261.19
2022-12-27T18:03:47.701Z,98277.50
2022-12-27T18:06:53.343Z,98265.75
2022-12-27T18:10:14.807Z,98262.31
2022-12-27T18:13:19.862Z,98247.38
2022-12-27T18:16:24.572Z,98240.28
2022-12-27T18:19:31.006Z,98253.44
2022-12-27T18:22:32.654Z,98241.53
2022-12-27T18:25:34.268Z,98246.53
2022-12-27T18:28:35.819Z,98236.31
2022-12-27T18:31:49.134Z,98235.47
2022-12-27T18:35:00.833Z,98246.53
2022-12-27T18:38:06.733Z,98236.09
2022-12-27T18:41:21.208Z,98234.84
2022-12-27T18:44:27.487Z,98236.81
2022-12-27T18:47:29.571Z,98239.66
2022-12-27T18:50:34.020Z,98224.19
2022-12-27T18:53:38.581Z,98202.44
2022-12-27T18:56:42.120Z,98214.53
2022-12-27T18:59:43.702Z,98219.75
2022-12-27T19:02:45.455Z,98213.91
2022-12-27T19:06:02.986Z,98223.72
2022-12-27T19:09:06.085Z,98219.88
2022-12-27T19:12:22.437Z,98215.63
2022-12-27T19:15:28.355Z,98217.22
2022-12-27T19:18:34.713Z,98221.19
2022-12-27T19:21:39.808Z,98214.13
2022-12-27T19:24:41.261Z,98232.31
2022-12-27T19:28:05.007Z,98221.78
2022-12-27T19:31:18.183Z,98218.31
2022-12-27T19:34:34.566Z,98218.34
2022-12-27T19:37:36.184Z,98215.13
2022-12-27T19:40:42.646Z,98203.72
2022-12-27T19:43:46.617Z,98206.03
2022-12-27T19:46:48.289Z,98206.03
2022-12-27T19:49:50.757Z,98205.41
2022-12-27T19:53:07.455Z,98191.59
2022-12-27T19:56:40.132Z,98186.22
2022-12-27T19:59:41.829Z,98177.50
2022-12-27T20:02:43.594Z,98172.28
2022-12-27T20:06:13.920Z,98182.34
2022-12-27T20:09:19.048Z,98176.22
2022-12-27T20:12:20.630Z,98170.09
2022-12-27T20:15:22.194Z,98178.84
2022-12-27T20:18:37.687Z,98185.84
2022-12-27T20:21:40.597Z,98183.50
2022-12-27T20:24:42.190Z,98169.56
2022-12-27T20:27:44.545Z,98169.47
2022-12-27T20:30:47.217Z,98170.09
2022-12-27T20:33:53.825Z,98167.97
2022-12-27T20:36:55.618Z,98170.69
2022-12-27T20:39:57.086Z,98169.19
2022-12-27T20:42:59.084Z,98162.81
2022-12-27T20:46:08.489Z,98168.53
2022-12-27T20:49:10.068Z,98171.34
2022-12-27T20:52:11.595Z,98155.91
2022-12-27T20:55:20.083Z,98161.03
2022-12-27T20:58:37.962Z,98154.91
2022-12-27T21:01:39.955Z,98144.84
2022-12-27T21:05:16.437Z,98155.28
2022-12-27T21:08:18.108Z,98149.31
2022-12-27T21:11:23.970Z,98155.50
2022-12-27T21:14:25.590Z,98132.81
2022-12-27T21:17:27.216Z,98124.44
2022-12-27T21:20:28.750Z,98128.31
2022-12-27T21:23:35.306Z,98135.09
2022-12-27T21:26:38.229Z,98140.69
2022-12-27T21:29:39.864Z,98141.91
2022-12-27T21:32:41.377Z,98136.78
2022-12-27T21:35:42.931Z,98138.25
2022-12-27T21:38:44.688Z,98120.22
2022-12-27T21:41:46.360Z,98131.50
2022-12-27T21:44:47.946Z,98132.97
2022-12-27T21:47:59.567Z,98125.34
2022-12-27T21:51:05.894Z,98136.50
2022-12-27T21:54:08.139Z,98140.59
2022-12-27T21:57:09.720Z,98138.72
2022-12-27T22:00:12.240Z,98134.34
2022-12-27T22:03:13.975Z,98121.34
2022-12-27T22:06:34.573Z,98116.03
2022-12-27T22:09:37.093Z,98125.97
2022-12-27T22:12:38.599Z,98119.38
2022-12-27T22:15:40.141Z,98116.22
2022-12-27T22:18:42.940Z,98116.53
2022-12-27T22:21:44.571Z,98108.72
2022-12-27T22:24:46.085Z,98112.31
2022-12-27T22:27:47.572Z,98116.34
2022-12-27T22:30:49.134Z,98113.19
2022-12-27T22:33:51.311Z,98113.94
2022-12-27T22:36:53.105Z,98106.13
2022-12-27T22:39:54.708Z,98102.94
2022-12-27T22:42:56.421Z,98099.53
2022-12-27T22:45:58.089Z,98099.31
2022-12-27T22:49:00.969Z,98089.66
2022-12-27T22:52:02.559Z,98103.94
2022-12-27T22:55:08.085Z,98098.78
2022-12-27T22:58:10.005Z,98098.47
2022-12-27T23:01:18.336Z,98097.16
2022-12-27T23:04:20.133Z,98094.66
2022-12-27T23:08:04.220Z,98099.69
2022-12-27T23:10:43.297Z,98097.09
2022-12-27T23:13:45.742Z,98097.44
2022-12-27T23:16:49.607Z,98077.38
2022-12-27T23:19:51.272Z,98083.25
2022-12-27T23:22:52.751Z,98078.84
2022-12-27T23:25:54.677Z,98081.06
2022-12-27T23:28:58.415Z,98075.94
2022-12-27T23:32:00.042Z,98073.91
2022-12-27T23:35:01.758Z,98064.34
2022-12-27T23:38:03.848Z,98077.16
2022-12-27T23:41:07.576Z,98074.19
2022-12-27T23:44:09.178Z,98065.88
2022-12-27T23:47:10.725Z,98055.44
2022-12-27T23:50:17.329Z,98046.34
2022-12-27T23:53:22.329Z,98055.03
2022-12-27T23:56:29.142Z,98053.38
2022-12-27T23:59:30.841Z,98052.78
